sensor_id;sensor_type;location;lat;lon;timestamp;pressure;altitude;pressure_sealevel;temperature;humidity
70833;BME280;71099;59.528;17.886;2023-12-20T00:01:16;99096.88;;;0.03;84.72
70833;BME280;71099;59.528;17.886;2023-12-20T00:03:42;99100.09;;;0.05;84.80
70833;BME280;71099;59.528;17.886;2023-12-20T00:06:07;99102.19;;;-0.01;85.43
70833;BME280;71099;59.528;17.886;2023-12-20T00:08:33;99095.97;;;-0.08;85.74
70833;BME280;71099;59.528;17.886;2023-12-20T00:10:58;99098.50;;;-0.08;85.99
70833;BME280;71099;59.528;17.886;2023-12-20T00:13:23;99094.91;;;-0.05;85.58
70833;BME280;71099;59.528;17.886;2023-12-20T00:15:49;99091.91;;;-0.10;86.47
70833;BME280;71099;59.528;17.886;2023-12-20T00:18:14;99090.41;;;-0.13;86.77
70833;BME280;71099;59.528;17.886;2023-12-20T00:20:40;99092.13;;;-0.13;86.34
70833;BME280;71099;59.528;17.886;2023-12-20T00:23:05;99091.66;;;-0.07;86.54
70833;BME280;71099;59.528;17.886;2023-12-20T00:25:30;99090.88;;;-0.08;86.53
70833;BME280;71099;59.528;17.886;2023-12-20T00:27:56;99090.88;;;-0.08;86.59
70833;BME280;71099;59.528;17.886;2023-12-20T00:30:21;99087.97;;;-0.03;87.15
70833;BME280;71099;59.528;17.886;2023-12-20T00:32:47;99094.78;;;-0.04;87.05
70833;BME280;71099;59.528;17.886;2023-12-20T00:35:16;99101.03;;;-0.08;87.34
70833;BME280;71099;59.528;17.886;2023-12-20T00:37:44;99081.41;;;-0.06;87.33
70833;BME280;71099;59.528;17.886;2023-12-20T00:40:10;99078.88;;;-0.06;87.31
70833;BME280;71099;59.528;17.886;2023-12-20T00:42:35;99085.81;;;-0.08;86.98
70833;BME280;71099;59.528;17.886;2023-12-20T00:45:01;99085.00;;;-0.08;86.54
70833;BME280;71099;59.528;17.886;2023-12-20T00:47:28;99087.41;;;-0.07;86.92
70833;BME280;71099;59.528;17.886;2023-12-20T00:49:53;99092.47;;;-0.07;87.57
70833;BME280;71099;59.528;17.886;2023-12-20T00:52:18;99094.19;;;-0.07;86.73
70833;BME280;71099;59.528;17.886;2023-12-20T00:54:44;99087.88;;;-0.13;87.40
70833;BME280;71099;59.528;17.886;2023-12-20T00:57:10;99088.13;;;-0.16;87.60
70833;BME280;71099;59.528;17.886;2023-12-20T00:59:35;99093.41;;;-0.19;88.13
70833;BME280;71099;59.528;17.886;2023-12-20T01:02:01;99088.91;;;-0.15;88.04
70833;BME280;71099;59.528;17.886;2023-12-20T01:04:26;99095.72;;;-0.27;88.37
70833;BME280;71099;59.528;17.886;2023-12-20T01:06:52;99110.69;;;-0.24;88.85
70833;BME280;71099;59.528;17.886;2023-12-20T01:09:17;99101.81;;;-0.18;88.36
70833;BME280;71099;59.528;17.886;2023-12-20T01:11:43;99095.72;;;-0.27;88.93
70833;BME280;71099;59.528;17.886;2023-12-20T01:14:09;99100.06;;;-0.29;89.24
70833;BME280;71099;59.528;17.886;2023-12-20T01:16:34;99102.16;;;-0.23;89.12
70833;BME280;71099;59.528;17.886;2023-12-20T01:19:00;99098.00;;;-0.24;88.90
70833;BME280;71099;59.528;17.886;2023-12-20T01:21:25;99095.25;;;-0.21;89.40
70833;BME280;71099;59.528;17.886;2023-12-20T01:23:50;99092.47;;;-0.18;88.69
70833;BME280;71099;59.528;17.886;2023-12-20T01:26:16;99086.72;;;-0.20;89.29
70833;BME280;71099;59.528;17.886;2023-12-20T01:28:42;99083.94;;;-0.17;89.15
70833;BME280;71099;59.528;17.886;2023-12-20T01:31:08;99082.22;;;-0.16;88.84
70833;BME280;71099;59.528;17.886;2023-12-20T01:33:34;99077.25;;;-0.18;89.18
70833;BME280;71099;59.528;17.886;2023-12-20T01:35:59;99082.22;;;-0.16;89.03
70833;BME280;71099;59.528;17.886;2023-12-20T01:38:25;99068.06;;;-0.19;88.68
70833;BME280;71099;59.528;17.886;2023-12-20T01:40:50;99068.06;;;-0.19;89.12
70833;BME280;71099;59.528;17.886;2023-12-20T01:43:16;99068.66;;;-0.15;89.11
70833;BME280;71099;59.528;17.886;2023-12-20T01:45:41;99068.50;;;-0.25;89.35
70833;BME280;71099;59.528;17.886;2023-12-20T01:48:08;99061.38;;;-0.31;89.15
70833;BME280;71099;59.528;17.886;2023-12-20T01:50:36;99060.06;;;-0.36;89.95
70833;BME280;71099;59.528;17.886;2023-12-20T01:53:02;99066.19;;;-0.50;90.60
70833;BME280;71099;59.528;17.886;2023-12-20T01:55:31;99065.91;;;-0.58;91.25
70833;BME280;71099;59.528;17.886;2023-12-20T01:57:58;99059.25;;;-0.59;91.79
70833;BME280;71099;59.528;17.886;2023-12-20T02:00:25;99060.84;;;-0.58;92.24
70833;BME280;71099;59.528;17.886;2023-12-20T02:02:53;99069.16;;;-0.56;92.12
70833;BME280;71099;59.528;17.886;2023-12-20T02:05:21;99062.47;;;-0.57;92.79
70833;BME280;71099;59.528;17.886;2023-12-20T02:07:47;99060.66;;;-0.55;92.91
70833;BME280;71099;59.528;17.886;2023-12-20T02:10:12;99047.75;;;-0.52;92.89
70833;BME280;71099;59.528;17.886;2023-12-20T02:12:38;99053.97;;;-0.56;93.15
70833;BME280;71099;59.528;17.886;2023-12-20T02:15:04;99050.53;;;-0.55;92.79
70833;BME280;71099;59.528;17.886;2023-12-20T02:17:31;99051.09;;;-0.52;93.12
70833;BME280;71099;59.528;17.886;2023-12-20T02:19:57;99056.84;;;-0.50;93.34
70833;BME280;71099;59.528;17.886;2023-12-20T02:22:22;99051.44;;;-0.45;93.74
70833;BME280;71099;59.528;17.886;2023-12-20T02:24:47;99059.72;;;-0.43;93.62
70833;BME280;71099;59.528;17.886;2023-12-20T02:27:13;99048.78;;;-0.43;93.86
70833;BME280;71099;59.528;17.886;2023-12-20T02:29:40;99047.78;;;-0.41;93.36
70833;BME280;71099;59.528;17.886;2023-12-20T02:32:06;99047.63;;;-0.39;93.36
70833;BME280;71099;59.528;17.886;2023-12-20T02:34:31;99049.94;;;-0.36;93.97
70833;BME280;71099;59.528;17.886;2023-12-20T02:36:57;99041.91;;;-0.41;93.75
70833;BME280;71099;59.528;17.886;2023-12-20T02:39:22;99038.31;;;-0.39;94.04
70833;BME280;71099;59.528;17.886;2023-12-20T02:41:48;99036.25;;;-0.45;93.96
70833;BME280;71099;59.528;17.886;2023-12-20T02:44:14;99033.97;;;-0.37;93.70
70833;BME280;71099;59.528;17.886;2023-12-20T02:46:39;99032.00;;;-0.33;93.99
70833;BME280;71099;59.528;17.886;2023-12-20T02:49:06;99034.63;;;-0.24;93.38
70833;BME280;71099;59.528;17.886;2023-12-20T02:51:31;99016.91;;;-0.35;93.75
70833;BME280;71099;59.528;17.886;2023-12-20T02:53:56;99027.28;;;-0.27;93.76
70833;BME280;71099;59.528;17.886;2023-12-20T02:56:22;99031.19;;;-0.34;92.92
70833;BME280;71099;59.528;17.886;2023-12-20T02:58:47;99025.06;;;-0.31;94.07
70833;BME280;71099;59.528;17.886;2023-12-20T03:01:13;99018.97;;;-0.29;94.08
70833;BME280;71099;59.528;17.886;2023-12-20T03:03:38;99014.38;;;-0.24;93.50
70833;BME280;71099;59.528;17.886;2023-12-20T03:06:03;99002.38;;;-0.22;94.18
70833;BME280;71099;59.528;17.886;2023-12-20T03:08:29;99013.88;;;-0.18;93.24
70833;BME280;71099;59.528;17.886;2023-12-20T03:10:54;99005.38;;;-0.17;93.36
70833;BME280;71099;59.528;17.886;2023-12-20T03:13:20;99001.22;;;-0.18;92.93
70833;BME280;71099;59.528;17.886;2023-12-20T03:15:45;99013.22;;;-0.20;93.30
70833;BME280;71099;59.528;17.886;2023-12-20T03:18:11;99013.88;;;-0.18;93.75
70833;BME280;71099;59.528;17.886;2023-12-20T03:20:37;99012.97;;;-0.17;93.46
70833;BME280;71099;59.528;17.886;2023-12-20T03:23:02;99011.16;;;-0.26;93.04
70833;BME280;71099;59.528;17.886;2023-12-20T03:25:28;99014.38;;;-0.24;93.49
70833;BME280;71099;59.528;17.886;2023-12-20T03:27:53;99007.66;;;-0.25;93.47
70833;BME280;71099;59.528;17.886;2023-12-20T03:30:19;98994.31;;;-0.27;93.66
70833;BME280;71099;59.528;17.886;2023-12-20T03:32:45;98994.75;;;-0.33;94.62
70833;BME280;71099;59.528;17.886;2023-12-20T03:35:10;98996.53;;;-0.33;94.72
70833;BME280;71099;59.528;17.886;2023-12-20T03:37:36;98992.94;;;-0.31;95.38
70833;BME280;71099;59.528;17.886;2023-12-20T03:40:02;98992.13;;;-0.31;94.81
70833;BME280;71099;59.528;17.886;2023-12-20T03:42:27;98985.81;;;-0.26;95.40
70833;BME280;71099;59.528;17.886;2023-12-20T03:44:53;98982.56;;;-0.28;95.28
70833;BME280;71099;59.528;17.886;2023-12-20T03:47:18;98978.88;;;-0.24;95.59
70833;BME280;71099;59.528;17.886;2023-12-20T03:49:44;98971.28;;;-0.24;95.08
70833;BME280;71099;59.528;17.886;2023-12-20T03:52:09;98970.00;;;-0.29;95.99
70833;BME280;71099;59.528;17.886;2023-12-20T03:54:35;98977.38;;;-0.26;95.97
70833;BME280;71099;59.528;17.886;2023-12-20T03:57:01;98973.47;;;-0.30;96.00
70833;BME280;71099;59.528;17.886;2023-12-20T03:59:26;98969.78;;;-0.26;95.76
70833;BME280;71099;59.528;17.886;2023-12-20T04:01:52;98979.34;;;-0.30;95.44
70833;BME280;71099;59.528;17.886;2023-12-20T04:04:17;98972.66;;;-0.31;95.77
70833;BME280;71099;59.528;17.886;2023-12-20T04:06:43;98979.91;;;-0.26;95.83
70833;BME280;71099;59.528;17.886;2023-12-20T04:09:08;98977.72;;;-0.31;95.47
70833;BME280;71099;59.528;17.886;2023-12-20T04:11:37;98974.03;;;-0.27;95.27
70833;BME280;71099;59.528;17.886;2023-12-20T04:14:02;98982.09;;;-0.22;94.62
70833;BME280;71099;59.528;17.886;2023-12-20T04:16:30;98980.50;;;-0.23;95.42
70833;BME280;71099;59.528;17.886;2023-12-20T04:18:55;98983.47;;;-0.29;95.08
70833;BME280;71099;59.528;17.886;2023-12-20T04:21:21;98987.16;;;-0.22;94.69
70833;BME280;71099;59.528;17.886;2023-12-20T04:23:46;98981.06;;;-0.19;94.74
70833;BME280;71099;59.528;17.886;2023-12-20T04:26:11;98990.25;;;-0.29;95.25
70833;BME280;71099;59.528;17.886;2023-12-20T04:28:37;98986.16;;;-0.30;94.62
70833;BME280;71099;59.528;17.886;2023-12-20T04:31:02;98987.63;;;-0.39;95.65
70833;BME280;71099;59.528;17.886;2023-12-20T04:33:28;98987.75;;;-0.40;96.19
70833;BME280;71099;59.528;17.886;2023-12-20T04:35:53;98990.97;;;-0.50;97.15
70833;BME280;71099;59.528;17.886;2023-12-20T04:38:18;98994.75;;;-0.44;96.89
70833;BME280;71099;59.528;17.886;2023-12-20T04:40:44;98986.16;;;-0.41;97.34
70833;BME280;71099;59.528;17.886;2023-12-20T04:43:09;98986.00;;;-0.40;97.20
70833;BME280;71099;59.528;17.886;2023-12-20T04:45:35;98994.09;;;-0.46;98.03
70833;BME280;71099;59.528;17.886;2023-12-20T04:48:01;98978.19;;;-0.37;97.60
70833;BME280;71099;59.528;17.886;2023-12-20T04:50:27;98970.00;;;-0.29;97.76
70833;BME280;71099;59.528;17.886;2023-12-20T04:52:52;98962.38;;;-0.18;97.42
70833;BME280;71099;59.528;17.886;2023-12-20T04:55:18;98966.19;;;-0.13;97.36
70833;BME280;71099;59.528;17.886;2023-12-20T04:57:43;98969.53;;;-0.12;98.07
70833;BME280;71099;59.528;17.886;2023-12-20T05:00:09;98966.19;;;-0.13;97.08
70833;BME280;71099;59.528;17.886;2023-12-20T05:02:35;98956.53;;;-0.19;96.59
70833;BME280;71099;59.528;17.886;2023-12-20T05:05:01;98955.59;;;-0.18;97.32
70833;BME280;71099;59.528;17.886;2023-12-20T05:07:26;98946.97;;;-0.15;97.11
70833;BME280;71099;59.528;17.886;2023-12-20T05:09:52;98948.66;;;-0.05;96.48
70833;BME280;71099;59.528;17.886;2023-12-20T05:12:17;98941.47;;;0.00;97.26
70833;BME280;71099;59.528;17.886;2023-12-20T05:14:43;98943.81;;;0.04;96.42
70833;BME280;71099;59.528;17.886;2023-12-20T05:17:08;98945.97;;;0.08;96.30
70833;BME280;71099;59.528;17.886;2023-12-20T05:19:33;98942.63;;;0.08;96.26
70833;BME280;71099;59.528;17.886;2023-12-20T05:22:02;98944.59;;;0.04;95.30
70833;BME280;71099;59.528;17.886;2023-12-20T05:24:28;98944.47;;;0.06;95.88
70833;BME280;71099;59.528;17.886;2023-12-20T05:26:54;98937.53;;;0.08;95.14
70833;BME280;71099;59.528;17.886;2023-12-20T05:29:20;98931.13;;;0.04;95.44
70833;BME280;71099;59.528;17.886;2023-12-20T05:31:45;98932.72;;;0.05;95.49
70833;BME280;71099;59.528;17.886;2023-12-20T05:34:10;98939.16;;;0.09;95.59
70833;BME280;71099;59.528;17.886;2023-12-20T05:36:36;98942.16;;;0.14;94.67
70833;BME280;71099;59.528;17.886;2023-12-20T05:39:02;98938.47;;;0.18;94.60
70833;BME280;71099;59.528;17.886;2023-12-20T05:41:31;98933.03;;;0.11;94.21
70833;BME280;71099;59.528;17.886;2023-12-20T05:43:56;98933.28;;;0.08;94.52
70833;BME280;71099;59.528;17.886;2023-12-20T05:46:25;98930.19;;;0.05;94.14
70833;BME280;71099;59.528;17.886;2023-12-20T05:48:53;98923.28;;;0.07;94.10
70833;BME280;71099;59.528;17.886;2023-12-20T05:51:18;98920.03;;;0.05;93.95
70833;BME280;71099;59.528;17.886;2023-12-20T05:53:44;98919.13;;;0.06;94.36
70833;BME280;71099;59.528;17.886;2023-12-20T05:56:10;98919.94;;;0.06;94.16
70833;BME280;71099;59.528;17.886;2023-12-20T05:58:35;98924.66;;;0.11;94.63
70833;BME280;71099;59.528;17.886;2023-12-20T06:01:04;98920.75;;;0.07;93.48
70833;BME280;71099;59.528;17.886;2023-12-20T06:03:30;98918.44;;;0.04;93.62
70833;BME280;71099;59.528;17.886;2023-12-20T06:05:55;98916.69;;;0.04;94.36
70833;BME280;71099;59.528;17.886;2023-12-20T06:08:21;98908.16;;;0.05;94.30
70833;BME280;71099;59.528;17.886;2023-12-20T06:10:46;98917.03;;;0.11;93.68
70833;BME280;71099;59.528;17.886;2023-12-20T06:13:12;98900.53;;;0.16;93.96
70833;BME280;71099;59.528;17.886;2023-12-20T06:15:38;98895.09;;;0.21;93.66
70833;BME280;71099;59.528;17.886;2023-12-20T06:18:04;98898.34;;;0.12;93.86
70833;BME280;71099;59.528;17.886;2023-12-20T06:20:29;98893.72;;;0.17;94.13
70833;BME280;71099;59.528;17.886;2023-12-20T06:22:55;98894.94;;;0.22;94.10
70833;BME280;71099;59.528;17.886;2023-12-20T06:25:20;98894.59;;;0.27;93.71
70833;BME280;71099;59.528;17.886;2023-12-20T06:27:45;98894.34;;;0.30;93.57
70833;BME280;71099;59.528;17.886;2023-12-20T06:30:11;98889.16;;;0.31;93.41
70833;BME280;71099;59.528;17.886;2023-12-20T06:32:36;98878.91;;;0.33;93.94
70833;BME280;71099;59.528;17.886;2023-12-20T06:35:03;98881.19;;;0.36;93.07
70833;BME280;71099;59.528;17.886;2023-12-20T06:37:30;98888.09;;;0.34;93.65
70833;BME280;71099;59.528;17.886;2023-12-20T06:39:55;98878.75;;;0.34;93.79
70833;BME280;71099;59.528;17.886;2023-12-20T06:42:22;98880.94;;;0.39;93.18
70833;BME280;71099;59.528;17.886;2023-12-20T06:44:47;98871.34;;;0.42;93.33
70833;BME280;71099;59.528;17.886;2023-12-20T06:47:13;98869.47;;;0.44;92.99
70833;BME280;71099;59.528;17.886;2023-12-20T06:49:39;98864.97;;;0.48;92.88
70833;BME280;71099;59.528;17.886;2023-12-20T06:52:05;98859.66;;;0.51;93.22
70833;BME280;71099;59.528;17.886;2023-12-20T06:54:31;98845.72;;;0.45;92.71
70833;BME280;71099;59.528;17.886;2023-12-20T06:56:56;98853.53;;;0.54;92.74
70833;BME280;71099;59.528;17.886;2023-12-20T06:59:21;98852.47;;;0.56;93.08
70833;BME280;71099;59.528;17.886;2023-12-20T07:01:48;98853.38;;;0.55;93.09
70833;BME280;71099;59.528;17.886;2023-12-20T07:04:14;98855.69;;;0.58;92.59
70833;BME280;71099;59.528;17.886;2023-12-20T07:06:39;98854.09;;;0.57;92.86
70833;BME280;71099;59.528;17.886;2023-12-20T07:09:05;98854.75;;;0.59;92.71
70833;BME280;71099;59.528;17.886;2023-12-20T07:11:31;98863.16;;;0.60;92.60
70833;BME280;71099;59.528;17.886;2023-12-20T07:13:57;98863.13;;;0.50;92.60
70833;BME280;71099;59.528;17.886;2023-12-20T07:16:22;98870.84;;;0.48;92.53
70833;BME280;71099;59.528;17.886;2023-12-20T07:18:48;98875.13;;;0.48;93.14
70833;BME280;71099;59.528;17.886;2023-12-20T07:21:13;98873.53;;;0.47;93.21
70833;BME280;71099;59.528;17.886;2023-12-20T07:23:38;98872.47;;;0.49;93.41
70833;BME280;71099;59.528;17.886;2023-12-20T07:26:04;98872.34;;;0.51;92.62
70833;BME280;71099;59.528;17.886;2023-12-20T07:28:29;98864.50;;;0.54;93.45
70833;BME280;71099;59.528;17.886;2023-12-20T07:30:55;98861.50;;;0.49;93.10
70833;BME280;71099;59.528;17.886;2023-12-20T07:33:20;98861.50;;;0.49;93.03
70833;BME280;71099;59.528;17.886;2023-12-20T07:35:46;98863.22;;;0.48;93.51
70833;BME280;71099;59.528;17.886;2023-12-20T07:38:12;98856.44;;;0.49;93.29
70833;BME280;71099;59.528;17.886;2023-12-20T07:40:37;98851.34;;;0.49;93.78
70833;BME280;71099;59.528;17.886;2023-12-20T07:43:04;98843.63;;;0.51;93.71
70833;BME280;71099;59.528;17.886;2023-12-20T07:45:29;98845.78;;;0.55;93.28
70833;BME280;71099;59.528;17.886;2023-12-20T07:47:54;98840.69;;;0.55;93.97
70833;BME280;71099;59.528;17.886;2023-12-20T07:50:20;98838.03;;;0.57;94.04
70833;BME280;71099;59.528;17.886;2023-12-20T07:52:45;98835.41;;;0.58;93.84
70833;BME280;71099;59.528;17.886;2023-12-20T07:55:11;98828.44;;;0.60;93.59
70833;BME280;71099;59.528;17.886;2023-12-20T07:57:36;98825.66;;;0.63;93.53
70833;BME280;71099;59.528;17.886;2023-12-20T08:00:02;98827.28;;;0.64;93.32
70833;BME280;71099;59.528;17.886;2023-12-20T08:02:29;98843.97;;;0.67;93.37
70833;BME280;71099;59.528;17.886;2023-12-20T08:04:54;98834.63;;;0.67;93.33
70833;BME280;71099;59.528;17.886;2023-12-20T08:07:20;98832.78;;;0.69;93.52
70833;BME280;71099;59.528;17.886;2023-12-20T08:09:45;98825.56;;;0.74;93.85
70833;BME280;71099;59.528;17.886;2023-12-20T08:12:11;98822.13;;;0.75;93.97
70833;BME280;71099;59.528;17.886;2023-12-20T08:14:37;98816.38;;;0.73;93.95
70833;BME280;71099;59.528;17.886;2023-12-20T08:17:02;98825.09;;;0.80;93.84
70833;BME280;71099;59.528;17.886;2023-12-20T08:19:28;98826.44;;;0.84;93.30
70833;BME280;71099;59.528;17.886;2023-12-20T08:21:53;98827.91;;;0.87;93.89
70833;BME280;71099;59.528;17.886;2023-12-20T08:24:19;98824.03;;;0.83;93.13
70833;BME280;71099;59.528;17.886;2023-12-20T08:26:44;98819.50;;;0.86;93.10
70833;BME280;71099;59.528;17.886;2023-12-20T08:29:13;98822.56;;;0.90;93.85
70833;BME280;71099;59.528;17.886;2023-12-20T08:31:38;98821.50;;;0.92;93.66
70833;BME280;71099;59.528;17.886;2023-12-20T08:34:04;98813.78;;;0.94;93.03
70833;BME280;71099;59.528;17.886;2023-12-20T08:36:29;98816.88;;;0.97;93.23
70833;BME280;71099;59.528;17.886;2023-12-20T08:38:54;98813.25;;;1.00;93.40
70833;BME280;71099;59.528;17.886;2023-12-20T08:41:20;98813.81;;;1.04;93.26
70833;BME280;71099;59.528;17.886;2023-12-20T08:43:46;98816.06;;;1.07;93.30
70833;BME280;71099;59.528;17.886;2023-12-20T08:46:11;98809.16;;;1.09;93.03
70833;BME280;71099;59.528;17.886;2023-12-20T08:48:37;98806.47;;;1.10;92.80
70833;BME280;71099;59.528;17.886;2023-12-20T08:51:04;98804.63;;;1.12;93.16
70833;BME280;71099;59.528;17.886;2023-12-20T08:53:29;98809.59;;;1.14;92.75
70833;BME280;71099;59.528;17.886;2023-12-20T08:55:55;98817.97;;;1.14;92.69
70833;BME280;71099;59.528;17.886;2023-12-20T08:58:20;98804.34;;;1.15;92.99
70833;BME280;71099;59.528;17.886;2023-12-20T09:00:46;98806.78;;;1.17;92.53
70833;BME280;71099;59.528;17.886;2023-12-20T09:03:11;98800.63;;;1.19;92.35
70833;BME280;71099;59.528;17.886;2023-12-20T09:05:36;98791.00;;;1.23;92.59
70833;BME280;71099;59.528;17.886;2023-12-20T09:08:02;98785.13;;;1.22;92.67
70833;BME280;71099;59.528;17.886;2023-12-20T09:10:27;98789.13;;;1.25;92.72
70833;BME280;71099;59.528;17.886;2023-12-20T09:12:54;98784.03;;;1.25;92.17
70833;BME280;71099;59.528;17.886;2023-12-20T09:15:26;98786.47;;;1.26;92.04
70833;BME280;71099;59.528;17.886;2023-12-20T09:17:52;98780.56;;;1.26;92.09
70833;BME280;71099;59.528;17.886;2023-12-20T09:20:19;98779.75;;;1.25;91.96
70833;BME280;71099;59.528;17.886;2023-12-20T09:22:44;98778.03;;;1.26;92.09
70833;BME280;71099;59.528;17.886;2023-12-20T09:25:10;98780.31;;;1.29;91.98
70833;BME280;71099;59.528;17.886;2023-12-20T09:27:38;98777.66;;;1.30;92.07
70833;BME280;71099;59.528;17.886;2023-12-20T09:30:04;98774.28;;;1.30;91.74
70833;BME280;71099;59.528;17.886;2023-12-20T09:32:30;98770.13;;;1.29;91.83
70833;BME280;71099;59.528;17.886;2023-12-20T09:34:56;98765.75;;;1.31;91.43
70833;BME280;71099;59.528;17.886;2023-12-20T09:37:21;98758.13;;;1.31;91.38
70833;BME280;71099;59.528;17.886;2023-12-20T09:39:47;98748.78;;;1.31;91.60
70833;BME280;71099;59.528;17.886;2023-12-20T09:42:17;98738.34;;;1.34;91.41
70833;BME280;71099;59.528;17.886;2023-12-20T09:44:47;98732.31;;;1.35;91.44
70833;BME280;71099;59.528;17.886;2023-12-20T09:47:13;98728.72;;;1.38;91.60
70833;BME280;71099;59.528;17.886;2023-12-20T09:49:42;98720.28;;;1.37;91.29
70833;BME280;71099;59.528;17.886;2023-12-20T09:52:09;98726.81;;;1.40;91.45
70833;BME280;71099;59.528;17.886;2023-12-20T09:54:36;98721.50;;;1.43;91.76
70833;BME280;71099;59.528;17.886;2023-12-20T09:57:01;98711.06;;;1.46;91.46
70833;BME280;71099;59.528;17.886;2023-12-20T09:59:26;98708.38;;;1.47;91.42
70833;BME280;71099;59.528;17.886;2023-12-20T10:01:55;98704.78;;;1.50;91.30
70833;BME280;71099;59.528;17.886;2023-12-20T10:04:20;98695.25;;;1.52;91.16
70833;BME280;71099;59.528;17.886;2023-12-20T10:06:46;98695.25;;;1.52;90.95
70833;BME280;71099;59.528;17.886;2023-12-20T10:09:12;98686.97;;;1.50;91.18
70833;BME280;71099;59.528;17.886;2023-12-20T10:11:38;98681.34;;;1.56;90.91
70833;BME280;71099;59.528;17.886;2023-12-20T10:14:04;98677.88;;;1.57;91.11
70833;BME280;71099;59.528;17.886;2023-12-20T10:16:31;98667.44;;;1.60;91.11
70833;BME280;71099;59.528;17.886;2023-12-20T10:18:57;98673.31;;;1.61;90.84
70833;BME280;71099;59.528;17.886;2023-12-20T10:21:23;98659.66;;;1.62;90.45
70833;BME280;71099;59.528;17.886;2023-12-20T10:23:54;98647.09;;;1.60;90.58
70833;BME280;71099;59.528;17.886;2023-12-20T10:26:22;98647.91;;;1.61;90.86
70833;BME280;71099;59.528;17.886;2023-12-20T10:28:56;98646.81;;;1.63;90.48
70833;BME280;71099;59.528;17.886;2023-12-20T10:31:34;98643.34;;;1.64;90.64
70833;BME280;71099;59.528;17.886;2023-12-20T10:34:02;98645.09;;;1.64;90.54
70833;BME280;71099;59.528;17.886;2023-12-20T10:36:30;98643.06;;;1.67;90.53
70833;BME280;71099;59.528;17.886;2023-12-20T10:38:56;98636.09;;;1.69;90.76
70833;BME280;71099;59.528;17.886;2023-12-20T10:41:28;98635.72;;;1.64;90.32
70833;BME280;71099;59.528;17.886;2023-12-20T10:44:01;98625.31;;;1.58;90.39
70833;BME280;71099;59.528;17.886;2023-12-20T10:46:28;98621.41;;;1.63;90.16
70833;BME280;71099;59.528;17.886;2023-12-20T10:48:56;98616.88;;;1.57;90.04
70833;BME280;71099;59.528;17.886;2023-12-20T10:51:22;98619.25;;;1.59;90.21
70833;BME280;71099;59.528;17.886;2023-12-20T10:53:48;98600.53;;;1.60;90.61
70833;BME280;71099;59.528;17.886;2023-12-20T10:56:18;98600.13;;;1.64;90.23
70833;BME280;71099;59.528;17.886;2023-12-20T10:58:45;98590.63;;;1.66;90.25
70833;BME280;71099;59.528;17.886;2023-12-20T11:01:15;98593.84;;;1.68;90.16
70833;BME280;71099;59.528;17.886;2023-12-20T11:04:01;98585.25;;;1.69;90.30
70833;BME280;71099;59.528;17.886;2023-12-20T11:09:40;98583.22;;;1.73;89.94
70833;BME280;71099;59.528;17.886;2023-12-20T11:12:13;98569.75;;;1.72;90.40
70833;BME280;71099;59.528;17.886;2023-12-20T11:14:53;98567.84;;;1.74;90.20
70833;BME280;71099;59.528;17.886;2023-12-20T11:17:21;98561.94;;;1.74;90.06
70833;BME280;71099;59.528;17.886;2023-12-20T11:22:17;98559.28;;;1.75;89.97
70833;BME280;71099;59.528;17.886;2023-12-20T11:24:44;98553.91;;;1.78;89.85
70833;BME280;71099;59.528;17.886;2023-12-20T11:27:09;98552.81;;;1.81;90.01
70833;BME280;71099;59.528;17.886;2023-12-20T11:29:36;98552.03;;;1.80;89.79
70833;BME280;71099;59.528;17.886;2023-12-20T11:34:51;98542.53;;;1.82;89.71
70833;BME280;71099;59.528;17.886;2023-12-20T11:37:19;98545.06;;;1.82;89.71
70833;BME280;71099;59.528;17.886;2023-12-20T11:39:44;98539.69;;;1.85;89.73
70833;BME280;71099;59.528;17.886;2023-12-20T11:42:10;98538.75;;;1.86;89.94
70833;BME280;71099;59.528;17.886;2023-12-20T11:44:36;98532.72;;;1.87;89.73
70833;BME280;71099;59.528;17.886;2023-12-20T11:47:03;98529.25;;;1.88;89.73
70833;BME280;71099;59.528;17.886;2023-12-20T11:49:28;98523.22;;;1.89;89.43
70833;BME280;71099;59.528;17.886;2023-12-20T11:51:56;98513.84;;;1.90;89.41
70833;BME280;71099;59.528;17.886;2023-12-20T11:54:22;98503.69;;;1.90;89.40
70833;BME280;71099;59.528;17.886;2023-12-20T11:56:48;98507.03;;;1.90;89.74
70833;BME280;71099;59.528;17.886;2023-12-20T11:59:13;98508.59;;;1.91;89.52
70833;BME280;71099;59.528;17.886;2023-12-20T12:01:39;98500.03;;;1.92;89.34
70833;BME280;71099;59.528;17.886;2023-12-20T12:04:05;98495.59;;;1.94;89.19
70833;BME280;71099;59.528;17.886;2023-12-20T12:06:31;98493.88;;;1.95;89.57
70833;BME280;71099;59.528;17.886;2023-12-20T12:08:57;98481.59;;;1.90;89.20
70833;BME280;71099;59.528;17.886;2023-12-20T12:11:23;98481.59;;;1.90;89.12
70833;BME280;71099;59.528;17.886;2023-12-20T12:13:49;98489.06;;;1.92;89.29
70833;BME280;71099;59.528;17.886;2023-12-20T12:16:20;98480.50;;;1.93;89.13
70833;BME280;71099;59.528;17.886;2023-12-20T12:18:46;98480.50;;;1.93;89.23
70833;BME280;71099;59.528;17.886;2023-12-20T12:21:20;98481.16;;;1.95;89.06
70833;BME280;71099;59.528;17.886;2023-12-20T12:23:46;98477.78;;;1.94;89.06
70833;BME280;71099;59.528;17.886;2023-12-20T12:26:11;98482.09;;;1.94;88.39
70833;BME280;71099;59.528;17.886;2023-12-20T12:28:40;98476.22;;;1.93;89.05
70833;BME280;71099;59.528;17.886;2023-12-20T12:31:06;98466.03;;;1.93;89.14
70833;BME280;71099;59.528;17.886;2023-12-20T12:33:32;98466.69;;;1.95;89.33
70833;BME280;71099;59.528;17.886;2023-12-20T12:35:57;98461.09;;;1.92;89.13
70833;BME280;71099;59.528;17.886;2023-12-20T12:38:24;98463.63;;;1.92;88.60
70833;BME280;71099;59.528;17.886;2023-12-20T12:40:50;98452.66;;;1.91;88.95
70833;BME280;71099;59.528;17.886;2023-12-20T12:43:15;98453.63;;;1.90;88.70
70833;BME280;71099;59.528;17.886;2023-12-20T12:45:41;98447.56;;;1.91;89.01
70833;BME280;71099;59.528;17.886;2023-12-20T12:48:07;98450.28;;;1.90;88.37
70833;BME280;71099;59.528;17.886;2023-12-20T12:50:32;98456.81;;;1.92;89.36
70833;BME280;71099;59.528;17.886;2023-12-20T12:52:58;98450.91;;;1.92;88.79
70833;BME280;71099;59.528;17.886;2023-12-20T12:55:23;98446.00;;;1.90;88.83
70833;BME280;71099;59.528;17.886;2023-12-20T12:57:49;98447.72;;;1.90;88.66